Aviation Digital Data Service (ADDS)

Output produced by METARs form (1655 UTC 03 June 2020)
found at http://www.aviationweather.gov/metar/data/
 
METAR text: VIDP 031630Z 21003KT 3500 HZ FEW035 SCT100 30/18 Q1004 NOSIG
Conditions at: VIDP (INDIRA GANDHI/DE, IN) observed 1630 UTC 03 June 2020
Temperature: 30.0°C (86°F)
Dewpoint: 18.0°C (64°F) [RH = 49%]
Pressure (altimeter): 29.65 inches Hg (1004.0 mb)
Winds: from the SSW (210 degrees) at 3 MPH (3 knots; 1.5 m/s)
Visibility: 2.17 miles (3.49 km)
Ceiling: at least 12,000 feet AGL
Clouds: few clouds at 3500 feet AGL
scattered clouds at 10000 feet AGL
Weather: HZ  (haze)

METAR text: VIDP 031600Z 00000KT 3500 HZ FEW035 SCT100 30/18 Q1004 NOSIG
Conditions at: VIDP (INDIRA GANDHI/DE, IN) observed 1600 UTC 03 June 2020
Temperature: 30.0°C (86°F)
Dewpoint: 18.0°C (64°F) [RH = 49%]
Pressure (altimeter): 29.65 inches Hg (1004.0 mb)
Winds: calm
Visibility: 2.17 miles (3.49 km)
Ceiling: at least 12,000 feet AGL
Clouds: few clouds at 3500 feet AGL
scattered clouds at 10000 feet AGL
Weather: HZ  (haze)

METAR text: VIDP 031530Z 25003KT 3500 HZ FEW035 SCT100 30/18 Q1004 NOSIG
Conditions at: VIDP (INDIRA GANDHI/DE, IN) observed 1530 UTC 03 June 2020
Temperature: 30.0°C (86°F)
Dewpoint: 18.0°C (64°F) [RH = 49%]
Pressure (altimeter): 29.65 inches Hg (1004.0 mb)
Winds: from the WSW (250 degrees) at 3 MPH (3 knots; 1.5 m/s)
Visibility: 2.17 miles (3.49 km)
Ceiling: at least 12,000 feet AGL
Clouds: few clouds at 3500 feet AGL
scattered clouds at 10000 feet AGL
Weather: HZ  (haze)

METAR text: VIDP 031500Z 27004KT 3500 HZ FEW035 SCT100 31/18 Q1003 NOSIG
Conditions at: VIDP (INDIRA GANDHI/DE, IN) observed 1500 UTC 03 June 2020
Temperature: 31.0°C (88°F)
Dewpoint: 18.0°C (64°F) [RH = 46%]
Pressure (altimeter): 29.62 inches Hg (1003.0 mb)
Winds: from the W (270 degrees) at 5 MPH (4 knots; 2.1 m/s)
Visibility: 2.17 miles (3.49 km)
Ceiling: at least 12,000 feet AGL
Clouds: few clouds at 3500 feet AGL
scattered clouds at 10000 feet AGL
Weather: HZ  (haze)

METAR text: VIDP 031430Z 26005KT 3500 HZ FEW035 SCT100 31/18 Q1003 NOSIG
Conditions at: VIDP (INDIRA GANDHI/DE, IN) observed 1430 UTC 03 June 2020
Temperature: 31.0°C (88°F)
Dewpoint: 18.0°C (64°F) [RH = 46%]
Pressure (altimeter): 29.62 inches Hg (1003.0 mb)
Winds: from the W (260 degrees) at 6 MPH (5 knots; 2.6 m/s)
Visibility: 2.17 miles (3.49 km)
Ceiling: at least 12,000 feet AGL
Clouds: few clouds at 3500 feet AGL
scattered clouds at 10000 feet AGL
Weather: HZ  (haze)

METAR text: VIDP 031400Z 14005KT 3500 HZ SCT035 FEW040CB BKN080 32/18 Q1002 NOSIG
Conditions at: VIDP (INDIRA GANDHI/DE, IN) observed 1400 UTC 03 June 2020
Temperature: 32.0°C (90°F)
Dewpoint: 18.0°C (64°F) [RH = 43%]
Pressure (altimeter): 29.59 inches Hg (1002.0 mb)
Winds: from the SE (140 degrees) at 6 MPH (5 knots; 2.6 m/s)
Visibility: 2.17 miles (3.49 km)
Ceiling: 8000 feet AGL
Clouds: scattered clouds at 3500 feet AGL
few clouds at 4000 feet AGL
broken clouds at 8000 feet AGL
Weather: HZ  (haze)

METAR text: VIDP 031330Z 11005KT 3500 HZ SCT035 FEW040CB BKN080 33/17 Q1002 NOSIG
Conditions at: VIDP (INDIRA GANDHI/DE, IN) observed 1330 UTC 03 June 2020
Temperature: 33.0°C (91°F)
Dewpoint: 17.0°C (63°F) [RH = 39%]
Pressure (altimeter): 29.59 inches Hg (1002.0 mb)
Winds: from the ESE (110 degrees) at 6 MPH (5 knots; 2.6 m/s)
Visibility: 2.17 miles (3.49 km)
Ceiling: 8000 feet AGL
Clouds: scattered clouds at 3500 feet AGL
few clouds at 4000 feet AGL
broken clouds at 8000 feet AGL
Weather: HZ  (haze)

METAR text: VIDP 031300Z 11005KT 3500 HZ SCT030 FEW040CB BKN080 34/17 Q1002 NOSIG
Conditions at: VIDP (INDIRA GANDHI/DE, IN) observed 1300 UTC 03 June 2020
Temperature: 34.0°C (93°F)
Dewpoint: 17.0°C (63°F) [RH = 36%]
Pressure (altimeter): 29.59 inches Hg (1002.0 mb)
Winds: from the ESE (110 degrees) at 6 MPH (5 knots; 2.6 m/s)
Visibility: 2.17 miles (3.49 km)
Ceiling: 8000 feet AGL
Clouds: scattered clouds at 3000 feet AGL
few clouds at 4000 feet AGL
broken clouds at 8000 feet AGL
Weather: HZ  (haze)

METAR text: VIDP 031230Z 11005KT 3500 HZ SCT035 BKN100 35/17 Q1002 NOSIG
Conditions at: VIDP (INDIRA GANDHI/DE, IN) observed 1230 UTC 03 June 2020
Temperature: 35.0°C (95°F)
Dewpoint: 17.0°C (63°F) [RH = 34%]
Pressure (altimeter): 29.59 inches Hg (1002.0 mb)
Winds: from the ESE (110 degrees) at 6 MPH (5 knots; 2.6 m/s)
Visibility: 2.17 miles (3.49 km)
Ceiling: 10000 feet AGL
Clouds: scattered clouds at 3500 feet AGL
broken clouds at 10000 feet AGL
Weather: HZ  (haze)

METAR text: VIDP 031200Z 23006KT 3500 HZ SCT035 FEW040CB BKN100 35/17 Q1002 NOSIG
Conditions at: VIDP (INDIRA GANDHI/DE, IN) observed 1200 UTC 03 June 2020
Temperature: 35.0°C (95°F)
Dewpoint: 17.0°C (63°F) [RH = 34%]
Pressure (altimeter): 29.59 inches Hg (1002.0 mb)
Winds: from the SW (230 degrees) at 7 MPH (6 knots; 3.1 m/s)
Visibility: 2.17 miles (3.49 km)
Ceiling: 10000 feet AGL
Clouds: scattered clouds at 3500 feet AGL
few clouds at 4000 feet AGL
broken clouds at 10000 feet AGL
Weather: HZ  (haze)

METAR text: VIDP 031130Z 19007KT 3500 HZ SCT035 FEW040CB BKN100 36/15 Q1002 NOSIG
Conditions at: VIDP (INDIRA GANDHI/DE, IN) observed 1130 UTC 03 June 2020
Temperature: 36.0°C (97°F)
Dewpoint: 15.0°C (59°F) [RH = 29%]
Pressure (altimeter): 29.59 inches Hg (1002.0 mb)
Winds: from the S (190 degrees) at 8 MPH (7 knots; 3.6 m/s)
Visibility: 2.17 miles (3.49 km)
Ceiling: 10000 feet AGL
Clouds: scattered clouds at 3500 feet AGL
few clouds at 4000 feet AGL
broken clouds at 10000 feet AGL
Weather: HZ  (haze)

METAR text: VIDP 031100Z 20005KT 3500 HZ SCT035 FEW040CB BKN100 36/14 Q1002 NOSIG
Conditions at: VIDP (INDIRA GANDHI/DE, IN) observed 1100 UTC 03 June 2020
Temperature: 36.0°C (97°F)
Dewpoint: 14.0°C (57°F) [RH = 27%]
Pressure (altimeter): 29.59 inches Hg (1002.0 mb)
Winds: from the SSW (200 degrees) at 6 MPH (5 knots; 2.6 m/s)
Visibility: 2.17 miles (3.49 km)
Ceiling: 10000 feet AGL
Clouds: scattered clouds at 3500 feet AGL
few clouds at 4000 feet AGL
broken clouds at 10000 feet AGL
Weather: HZ  (haze)

METAR text: VIDP 031030Z 23006KT 3500 HZ SCT035 FEW040CB BKN100 36/14 Q1002 NOSIG
Conditions at: VIDP (INDIRA GANDHI/DE, IN) observed 1030 UTC 03 June 2020
Temperature: 36.0°C (97°F)
Dewpoint: 14.0°C (57°F) [RH = 27%]
Pressure (altimeter): 29.59 inches Hg (1002.0 mb)
Winds: from the SW (230 degrees) at 7 MPH (6 knots; 3.1 m/s)
Visibility: 2.17 miles (3.49 km)
Ceiling: 10000 feet AGL
Clouds: scattered clouds at 3500 feet AGL
few clouds at 4000 feet AGL
broken clouds at 10000 feet AGL
Weather: HZ  (haze)

METAR text: VIDP 031000Z 230006KT 4000 HZ SCT035 FEW040CB BKN100 36/15 Q1003 NOSIG
Conditions at: VIDP (INDIRA GANDHI/DE, IN) observed 1000 UTC 03 June 2020
Temperature: 36.0°C (97°F)
Dewpoint: 15.0°C (59°F) [RH = 29%]
Pressure (altimeter): 29.62 inches Hg (1003.0 mb)
Winds: from the SW (230 degrees) at 7 MPH (6 knots; 3.1 m/s)
Visibility: 2.49 miles (4.01 km)
Ceiling: 10000 feet AGL
Clouds: scattered clouds at 3500 feet AGL
few clouds at 4000 feet AGL
broken clouds at 10000 feet AGL
Weather: HZ  (haze)

METAR text: VIDP 030930Z 25005KT 4500 HZ SCT035 BKN100 36/17 Q1003 NOSIG
Conditions at: VIDP (INDIRA GANDHI/DE, IN) observed 0930 UTC 03 June 2020
Temperature: 36.0°C (97°F)
Dewpoint: 17.0°C (63°F) [RH = 33%]
Pressure (altimeter): 29.62 inches Hg (1003.0 mb)
Winds: from the WSW (250 degrees) at 6 MPH (5 knots; 2.6 m/s)
Visibility: 2.80 miles (4.51 km)
Ceiling: 10000 feet AGL
Clouds: scattered clouds at 3500 feet AGL
broken clouds at 10000 feet AGL
Weather: HZ  (haze)

METAR text: VIDP 030900Z 30005KT 4500 HZ SCT035 BKN100 36/18 Q1003 NOSIG
Conditions at: VIDP (INDIRA GANDHI/DE, IN) observed 0900 UTC 03 June 2020
Temperature: 36.0°C (97°F)
Dewpoint: 18.0°C (64°F) [RH = 35%]
Pressure (altimeter): 29.62 inches Hg (1003.0 mb)
Winds: from the WNW (300 degrees) at 6 MPH (5 knots; 2.6 m/s)
Visibility: 2.80 miles (4.51 km)
Ceiling: 10000 feet AGL
Clouds: scattered clouds at 3500 feet AGL
broken clouds at 10000 feet AGL
Weather: HZ  (haze)

METAR text: VIDP 030830Z 27004KT 4500 HZ SCT035 FEW040CB BKN100 36/19 Q1004 NOSIG
Conditions at: VIDP (INDIRA GANDHI/DE, IN) observed 0830 UTC 03 June 2020
Temperature: 36.0°C (97°F)
Dewpoint: 19.0°C (66°F) [RH = 37%]
Pressure (altimeter): 29.65 inches Hg (1004.0 mb)
Winds: from the W (270 degrees) at 5 MPH (4 knots; 2.1 m/s)
Visibility: 2.80 miles (4.51 km)
Ceiling: 10000 feet AGL
Clouds: scattered clouds at 3500 feet AGL
few clouds at 4000 feet AGL
broken clouds at 10000 feet AGL
Weather: HZ  (haze)

METAR text: VIDP 030800Z 28006KT 4500 HZ SCT035 FEW040CB BKN100 35/19 Q1004 NOSIG
Conditions at: VIDP (INDIRA GANDHI/DE, IN) observed 0800 UTC 03 June 2020
Temperature: 35.0°C (95°F)
Dewpoint: 19.0°C (66°F) [RH = 39%]
Pressure (altimeter): 29.65 inches Hg (1004.0 mb)
Winds: from the W (280 degrees) at 7 MPH (6 knots; 3.1 m/s)
Visibility: 2.80 miles (4.51 km)
Ceiling: 10000 feet AGL
Clouds: scattered clouds at 3500 feet AGL
few clouds at 4000 feet AGL
broken clouds at 10000 feet AGL
Weather: HZ  (haze)

METAR text: VIDP 030730Z 28006KT 4500 HZ SCT035 FEW040CB SCT100 35/19 Q1005 NOSIG
Conditions at: VIDP (INDIRA GANDHI/DE, IN) observed 0730 UTC 03 June 2020
Temperature: 35.0°C (95°F)
Dewpoint: 19.0°C (66°F) [RH = 39%]
Pressure (altimeter): 29.68 inches Hg (1005.0 mb)
Winds: from the W (280 degrees) at 7 MPH (6 knots; 3.1 m/s)
Visibility: 2.80 miles (4.51 km)
Ceiling: at least 12,000 feet AGL
Clouds: scattered clouds at 3500 feet AGL
few clouds at 4000 feet AGL
scattered clouds at 10000 feet AGL
Weather: HZ  (haze)

METAR text: VIDP 030700Z 29004KT 4500 HZ FEW040 SCT100 35/18 Q1005 NOSIG
Conditions at: VIDP (INDIRA GANDHI/DE, IN) observed 0700 UTC 03 June 2020
Temperature: 35.0°C (95°F)
Dewpoint: 18.0°C (64°F) [RH = 37%]
Pressure (altimeter): 29.68 inches Hg (1005.0 mb)
Winds: from the WNW (290 degrees) at 5 MPH (4 knots; 2.1 m/s)
Visibility: 2.80 miles (4.51 km)
Ceiling: at least 12,000 feet AGL
Clouds: few clouds at 4000 feet AGL
scattered clouds at 10000 feet AGL
Weather: HZ  (haze)

METAR text: VIDP 030630Z 26007KT 4500 HZ FEW100 35/18 Q1005 NOSIG
Conditions at: VIDP (INDIRA GANDHI/DE, IN) observed 0630 UTC 03 June 2020
Temperature: 35.0°C (95°F)
Dewpoint: 18.0°C (64°F) [RH = 37%]
Pressure (altimeter): 29.68 inches Hg (1005.0 mb)
Winds: from the W (260 degrees) at 8 MPH (7 knots; 3.6 m/s)
Visibility: 2.80 miles (4.51 km)
Ceiling: at least 12,000 feet AGL
Clouds: few clouds at 10000 feet AGL
Weather: HZ  (haze)

METAR text: VIDP 030600Z 28005KT 4000 HZ FEW100 35/19 Q1005 NOSIG
Conditions at: VIDP (INDIRA GANDHI/DE, IN) observed 0600 UTC 03 June 2020
Temperature: 35.0°C (95°F)
Dewpoint: 19.0°C (66°F) [RH = 39%]
Pressure (altimeter): 29.68 inches Hg (1005.0 mb)
Winds: from the W (280 degrees) at 6 MPH (5 knots; 2.6 m/s)
Visibility: 2.49 miles (4.01 km)
Ceiling: at least 12,000 feet AGL
Clouds: few clouds at 10000 feet AGL
Weather: HZ  (haze)

METAR text: VIDP 030530Z 35004KT 3500 HZ FEW100 34/20 Q1005 NOSIG
Conditions at: VIDP (INDIRA GANDHI/DE, IN) observed 0530 UTC 03 June 2020
Temperature: 34.0°C (93°F)
Dewpoint: 20.0°C (68°F) [RH = 44%]
Pressure (altimeter): 29.68 inches Hg (1005.0 mb)
Winds: from the N (350 degrees) at 5 MPH (4 knots; 2.1 m/s)
Visibility: 2.17 miles (3.49 km)
Ceiling: at least 12,000 feet AGL
Clouds: few clouds at 10000 feet AGL
Weather: HZ  (haze)

METAR text: VIDP 030500Z VRB02KT 3500 HZ NSC 33/20 Q1005 NOSIG
Conditions at: VIDP (INDIRA GANDHI/DE, IN) observed 0500 UTC 03 June 2020
Temperature: 33.0°C (91°F)
Dewpoint: 20.0°C (68°F) [RH = 46%]
Pressure (altimeter): 29.68 inches Hg (1005.0 mb)
Winds: variable direction winds at 2 MPH (2 knots; 1.0 m/s)
Visibility: 2.17 miles (3.49 km)
Ceiling: at least 12,000 feet AGL
Clouds: sky clear below 12,000 feet AGL
Weather: HZ  (haze)

METAR text: VIDP 030230Z 11003KT 2500 HZ NSC 31/21 Q1005 NOSIG
Conditions at: VIDP (INDIRA GANDHI/DE, IN) observed 0230 UTC 03 June 2020
Temperature: 31.0°C (88°F)
Dewpoint: 21.0°C (70°F) [RH = 55%]
Pressure (altimeter): 29.68 inches Hg (1005.0 mb)
Winds: from the ESE (110 degrees) at 3 MPH (3 knots; 1.5 m/s)
Visibility: 1.55 miles (2.49 km)
Ceiling: at least 12,000 feet AGL
Clouds: sky clear below 12,000 feet AGL
Weather: HZ  (haze)

METAR text: VIDP 030200Z 10003KT 2500 HZ NSC 30/22 Q1005 NOSIG
Conditions at: VIDP (INDIRA GANDHI/DE, IN) observed 0200 UTC 03 June 2020
Temperature: 30.0°C (86°F)
Dewpoint: 22.0°C (72°F) [RH = 62%]
Pressure (altimeter): 29.68 inches Hg (1005.0 mb)
Winds: from the E (100 degrees) at 3 MPH (3 knots; 1.5 m/s)
Visibility: 1.55 miles (2.49 km)
Ceiling: at least 12,000 feet AGL
Clouds: sky clear below 12,000 feet AGL
Weather: HZ  (haze)

METAR text: VIDP 030130Z 10003KT 2200 HZ NSC 29/22 Q1005 NOSIG
Conditions at: VIDP (INDIRA GANDHI/DE, IN) observed 0130 UTC 03 June 2020
Temperature: 29.0°C (84°F)
Dewpoint: 22.0°C (72°F) [RH = 66%]
Pressure (altimeter): 29.68 inches Hg (1005.0 mb)
Winds: from the E (100 degrees) at 3 MPH (3 knots; 1.5 m/s)
Visibility: 1.37 miles (2.20 km)
Ceiling: at least 12,000 feet AGL
Clouds: sky clear below 12,000 feet AGL
Weather: HZ  (haze)

METAR text: VIDP 030100Z 00000KT 2200 HZ NSC 27/22 Q1005 NOSIG
Conditions at: VIDP (INDIRA GANDHI/DE, IN) observed 0100 UTC 03 June 2020
Temperature: 27.0°C (81°F)
Dewpoint: 22.0°C (72°F) [RH = 74%]
Pressure (altimeter): 29.68 inches Hg (1005.0 mb)
Winds: calm
Visibility: 1.37 miles (2.20 km)
Ceiling: at least 12,000 feet AGL
Clouds: sky clear below 12,000 feet AGL
Weather: HZ  (haze)

METAR text: VIDP 030030Z 00000KT 2500 HZ NSC 27/21 Q1004 NOSIG
Conditions at: VIDP (INDIRA GANDHI/DE, IN) observed 0030 UTC 03 June 2020
Temperature: 27.0°C (81°F)
Dewpoint: 21.0°C (70°F) [RH = 70%]
Pressure (altimeter): 29.65 inches Hg (1004.0 mb)
Winds: calm
Visibility: 1.55 miles (2.49 km)
Ceiling: at least 12,000 feet AGL
Clouds: sky clear below 12,000 feet AGL
Weather: HZ  (haze)

METAR text: VIDP 030000Z 05003KT 2800 HZ FEW100 27/21 Q1004 NOSIG
Conditions at: VIDP (INDIRA GANDHI/DE, IN) observed 0000 UTC 03 June 2020
Temperature: 27.0°C (81°F)
Dewpoint: 21.0°C (70°F) [RH = 70%]
Pressure (altimeter): 29.65 inches Hg (1004.0 mb)
Winds: from the NE (50 degrees) at 3 MPH (3 knots; 1.5 m/s)
Visibility: 1.74 miles (2.80 km)
Ceiling: at least 12,000 feet AGL
Clouds: few clouds at 10000 feet AGL
Weather: HZ  (haze)

METAR text: VIDP 022330Z 05003KT 3000 HZ SCT100 27/21 Q1004 NOSIG
Conditions at: VIDP (INDIRA GANDHI/DE, IN) observed 2330 UTC 02 June 2020
Temperature: 27.0°C (81°F)
Dewpoint: 21.0°C (70°F) [RH = 70%]
Pressure (altimeter): 29.65 inches Hg (1004.0 mb)
Winds: from the NE (50 degrees) at 3 MPH (3 knots; 1.5 m/s)
Visibility: 1.86 miles (2.99 km)
Ceiling: at least 12,000 feet AGL
Clouds: scattered clouds at 10000 feet AGL
Weather: HZ  (haze)

METAR text: VIDP 022300Z 00000KT 3500 HZ FEW040 SCT100 28/21 Q1003 BECMG 3000 HZ
Conditions at: VIDP (INDIRA GANDHI/DE, IN) observed 2300 UTC 02 June 2020
Temperature: 28.0°C (82°F)
Dewpoint: 21.0°C (70°F) [RH = 66%]
Pressure (altimeter): 29.62 inches Hg (1003.0 mb)
Winds: calm
Visibility: 2.17 miles (3.49 km)
Ceiling: at least 12,000 feet AGL
Clouds: few clouds at 4000 feet AGL
scattered clouds at 10000 feet AGL
Weather: HZ  (haze)

METAR text: VIDP 022230Z 00000KT 3500 HZ FEW040 SCT100 28/21 Q1003 NOSIG
Conditions at: VIDP (INDIRA GANDHI/DE, IN) observed 2230 UTC 02 June 2020
Temperature: 28.0°C (82°F)
Dewpoint: 21.0°C (70°F) [RH = 66%]
Pressure (altimeter): 29.62 inches Hg (1003.0 mb)
Winds: calm
Visibility: 2.17 miles (3.49 km)
Ceiling: at least 12,000 feet AGL
Clouds: few clouds at 4000 feet AGL
scattered clouds at 10000 feet AGL
Weather: HZ  (haze)

METAR text: VIDP 022200Z 00000KT 4000 HZ FEW040 SCT100 28/21 Q1003 NOSIG
Conditions at: VIDP (INDIRA GANDHI/DE, IN) observed 2200 UTC 02 June 2020
Temperature: 28.0°C (82°F)
Dewpoint: 21.0°C (70°F) [RH = 66%]
Pressure (altimeter): 29.62 inches Hg (1003.0 mb)
Winds: calm
Visibility: 2.49 miles (4.01 km)
Ceiling: at least 12,000 feet AGL
Clouds: few clouds at 4000 feet AGL
scattered clouds at 10000 feet AGL
Weather: HZ  (haze)

METAR text: VIDP 022130Z 00000KT 4000 HZ FEW040 SCT100 29/22 Q1003 NOSIG
Conditions at: VIDP (INDIRA GANDHI/DE, IN) observed 2130 UTC 02 June 2020
Temperature: 29.0°C (84°F)
Dewpoint: 22.0°C (72°F) [RH = 66%]
Pressure (altimeter): 29.62 inches Hg (1003.0 mb)
Winds: calm
Visibility: 2.49 miles (4.01 km)
Ceiling: at least 12,000 feet AGL
Clouds: few clouds at 4000 feet AGL
scattered clouds at 10000 feet AGL
Weather: HZ  (haze)

METAR text: VIDP 022100Z 00000KT 4000 HZ FEW040 SCT100 29/22 Q1004 NOSIG
Conditions at: VIDP (INDIRA GANDHI/DE, IN) observed 2100 UTC 02 June 2020
Temperature: 29.0°C (84°F)
Dewpoint: 22.0°C (72°F) [RH = 66%]
Pressure (altimeter): 29.65 inches Hg (1004.0 mb)
Winds: calm
Visibility: 2.49 miles (4.01 km)
Ceiling: at least 12,000 feet AGL
Clouds: few clouds at 4000 feet AGL
scattered clouds at 10000 feet AGL
Weather: HZ  (haze)

METAR text: VIDP 022030Z 00000KT 4000 HZ FEW040 SCT100 29/21 Q1004 NOSIG
Conditions at: VIDP (INDIRA GANDHI/DE, IN) observed 2030 UTC 02 June 2020
Temperature: 29.0°C (84°F)
Dewpoint: 21.0°C (70°F) [RH = 62%]
Pressure (altimeter): 29.65 inches Hg (1004.0 mb)
Winds: calm
Visibility: 2.49 miles (4.01 km)
Ceiling: at least 12,000 feet AGL
Clouds: few clouds at 4000 feet AGL
scattered clouds at 10000 feet AGL
Weather: HZ  (haze)

METAR text: VIDP 022000Z 00000KT 4000 HZ FEW040 SCT100 29/21 Q1004 NOSIG
Conditions at: VIDP (INDIRA GANDHI/DE, IN) observed 2000 UTC 02 June 2020
Temperature: 29.0°C (84°F)
Dewpoint: 21.0°C (70°F) [RH = 62%]
Pressure (altimeter): 29.65 inches Hg (1004.0 mb)
Winds: calm
Visibility: 2.49 miles (4.01 km)
Ceiling: at least 12,000 feet AGL
Clouds: few clouds at 4000 feet AGL
scattered clouds at 10000 feet AGL
Weather: HZ  (haze)

METAR text: VIDP 021930Z 00000KT 4000 HZ FEW040 SCT100 29/21 Q1005 NOSIG
Conditions at: VIDP (INDIRA GANDHI/DE, IN) observed 1930 UTC 02 June 2020
Temperature: 29.0°C (84°F)
Dewpoint: 21.0°C (70°F) [RH = 62%]
Pressure (altimeter): 29.68 inches Hg (1005.0 mb)
Winds: calm
Visibility: 2.49 miles (4.01 km)
Ceiling: at least 12,000 feet AGL
Clouds: few clouds at 4000 feet AGL
scattered clouds at 10000 feet AGL
Weather: HZ  (haze)

METAR text: VIDP 021900Z 00000KT 4000 HZ FEW040 SCT100 29/20 Q1005 NOSIG
Conditions at: VIDP (INDIRA GANDHI/DE, IN) observed 1900 UTC 02 June 2020
Temperature: 29.0°C (84°F)
Dewpoint: 20.0°C (68°F) [RH = 58%]
Pressure (altimeter): 29.68 inches Hg (1005.0 mb)
Winds: calm
Visibility: 2.49 miles (4.01 km)
Ceiling: at least 12,000 feet AGL
Clouds: few clouds at 4000 feet AGL
scattered clouds at 10000 feet AGL
Weather: HZ  (haze)

METAR text: VIDP 021800Z 00000KT 4000 HZ FEW100 30/19 Q1005 NOSIG
Conditions at: VIDP (INDIRA GANDHI/DE, IN) observed 1800 UTC 02 June 2020
Temperature: 30.0°C (86°F)
Dewpoint: 19.0°C (66°F) [RH = 52%]
Pressure (altimeter): 29.68 inches Hg (1005.0 mb)
Winds: calm
Visibility: 2.49 miles (4.01 km)
Ceiling: at least 12,000 feet AGL
Clouds: few clouds at 10000 feet AGL
Weather: HZ  (haze)

METAR text: VIDP 021730Z 00000KT 4000 HZ FEW100 30/19 Q1005 NOSIG
Conditions at: VIDP (INDIRA GANDHI/DE, IN) observed 1730 UTC 02 June 2020
Temperature: 30.0°C (86°F)
Dewpoint: 19.0°C (66°F) [RH = 52%]
Pressure (altimeter): 29.68 inches Hg (1005.0 mb)
Winds: calm
Visibility: 2.49 miles (4.01 km)
Ceiling: at least 12,000 feet AGL
Clouds: few clouds at 10000 feet AGL
Weather: HZ  (haze)

METAR text: VIDP 021700Z 00000KT 4000 HZ FEW040 30/20 Q1006 NOSIG
Conditions at: VIDP (INDIRA GANDHI/DE, IN) observed 1700 UTC 02 June 2020
Temperature: 30.0°C (86°F)
Dewpoint: 20.0°C (68°F) [RH = 55%]
Pressure (altimeter): 29.70 inches Hg (1006.0 mb)
Winds: calm
Visibility: 2.49 miles (4.01 km)
Ceiling: at least 12,000 feet AGL
Clouds: few clouds at 4000 feet AGL
Weather: HZ  (haze)

METAR text: VIDP 021630Z 00000KT 4000 HZ FEW040 SCT100 31/21 Q1005 NOSIG
Conditions at: VIDP (INDIRA GANDHI/DE, IN) observed 1630 UTC 02 June 2020
Temperature: 31.0°C (88°F)
Dewpoint: 21.0°C (70°F) [RH = 55%]
Pressure (altimeter): 29.68 inches Hg (1005.0 mb)
Winds: calm
Visibility: 2.49 miles (4.01 km)
Ceiling: at least 12,000 feet AGL
Clouds: few clouds at 4000 feet AGL
scattered clouds at 10000 feet AGL
Weather: HZ  (haze)

METAR text: VIDP 021600Z 35003KT 4000 HZ FEW040 SCT100 31/21 Q1005 NOSIG
Conditions at: VIDP (INDIRA GANDHI/DE, IN) observed 1600 UTC 02 June 2020
Temperature: 31.0°C (88°F)
Dewpoint: 21.0°C (70°F) [RH = 55%]
Pressure (altimeter): 29.68 inches Hg (1005.0 mb)
Winds: from the N (350 degrees) at 3 MPH (3 knots; 1.5 m/s)
Visibility: 2.49 miles (4.01 km)
Ceiling: at least 12,000 feet AGL
Clouds: few clouds at 4000 feet AGL
scattered clouds at 10000 feet AGL
Weather: HZ  (haze)

METAR text: VIDP 021530Z 02004KT 4000 HZ FEW040 SCT100 31/20 Q1005 NOSIG
Conditions at: VIDP (INDIRA GANDHI/DE, IN) observed 1530 UTC 02 June 2020
Temperature: 31.0°C (88°F)
Dewpoint: 20.0°C (68°F) [RH = 52%]
Pressure (altimeter): 29.68 inches Hg (1005.0 mb)
Winds: from the NNE (20 degrees) at 5 MPH (4 knots; 2.1 m/s)
Visibility: 2.49 miles (4.01 km)
Ceiling: at least 12,000 feet AGL
Clouds: few clouds at 4000 feet AGL
scattered clouds at 10000 feet AGL
Weather: HZ  (haze)

METAR text: VIDP 021500Z 34006KT 4000 HZ FEW040 SCT100 32/20 Q1005 NOSIG
Conditions at: VIDP (INDIRA GANDHI/DE, IN) observed 1500 UTC 02 June 2020
Temperature: 32.0°C (90°F)
Dewpoint: 20.0°C (68°F) [RH = 49%]
Pressure (altimeter): 29.68 inches Hg (1005.0 mb)
Winds: from the NNW (340 degrees) at 7 MPH (6 knots; 3.1 m/s)
Visibility: 2.49 miles (4.01 km)
Ceiling: at least 12,000 feet AGL
Clouds: few clouds at 4000 feet AGL
scattered clouds at 10000 feet AGL
Weather: HZ  (haze)

METAR text: VIDP 021430Z 30007KT 4000 HZ FEW040 SCT100 33/18 Q1004 NOSIG
Conditions at: VIDP (INDIRA GANDHI/DE, IN) observed 1430 UTC 02 June 2020
Temperature: 33.0°C (91°F)
Dewpoint: 18.0°C (64°F) [RH = 41%]
Pressure (altimeter): 29.65 inches Hg (1004.0 mb)
Winds: from the WNW (300 degrees) at 8 MPH (7 knots; 3.6 m/s)
Visibility: 2.49 miles (4.01 km)
Ceiling: at least 12,000 feet AGL
Clouds: few clouds at 4000 feet AGL
scattered clouds at 10000 feet AGL
Weather: HZ  (haze)

METAR text: VIDP 021400Z 25003KT 4000 HZ FEW030 FEW035CB SCT100 35/16 Q1003 NOSIG
Conditions at: VIDP (INDIRA GANDHI/DE, IN) observed 1400 UTC 02 June 2020
Temperature: 35.0°C (95°F)
Dewpoint: 16.0°C (61°F) [RH = 32%]
Pressure (altimeter): 29.62 inches Hg (1003.0 mb)
Winds: from the WSW (250 degrees) at 3 MPH (3 knots; 1.5 m/s)
Visibility: 2.49 miles (4.01 km)
Ceiling: at least 12,000 feet AGL
Clouds: few clouds at 3000 feet AGL
few clouds at 3500 feet AGL
scattered clouds at 10000 feet AGL
Weather: HZ  (haze)

METAR text: VIDP 021330Z 28003KT 4500 HZ FEW030 FEW035CB SCT100 35/15 Q1003 NOSIG
Conditions at: VIDP (INDIRA GANDHI/DE, IN) observed 1330 UTC 02 June 2020
Temperature: 35.0°C (95°F)
Dewpoint: 15.0°C (59°F) [RH = 30%]
Pressure (altimeter): 29.62 inches Hg (1003.0 mb)
Winds: from the W (280 degrees) at 3 MPH (3 knots; 1.5 m/s)
Visibility: 2.80 miles (4.51 km)
Ceiling: at least 12,000 feet AGL
Clouds: few clouds at 3000 feet AGL
few clouds at 3500 feet AGL
scattered clouds at 10000 feet AGL
Weather: HZ  (haze)

METAR text: VIDP 021300Z 26004KT 4500 HZ FEW030 FEW035CB SCT100 35/15 Q1003 NOSIG
Conditions at: VIDP (INDIRA GANDHI/DE, IN) observed 1300 UTC 02 June 2020
Temperature: 35.0°C (95°F)
Dewpoint: 15.0°C (59°F) [RH = 30%]
Pressure (altimeter): 29.62 inches Hg (1003.0 mb)
Winds: from the W (260 degrees) at 5 MPH (4 knots; 2.1 m/s)
Visibility: 2.80 miles (4.51 km)
Ceiling: at least 12,000 feet AGL
Clouds: few clouds at 3000 feet AGL
few clouds at 3500 feet AGL
scattered clouds at 10000 feet AGL
Weather: HZ  (haze)

METAR text: VIDP 021230Z 25005KT 4500 HZ FEW030 FEW035CB SCT100 36/14 Q1003 NOSIG
Conditions at: VIDP (INDIRA GANDHI/DE, IN) observed 1230 UTC 02 June 2020
Temperature: 36.0°C (97°F)
Dewpoint: 14.0°C (57°F) [RH = 27%]
Pressure (altimeter): 29.62 inches Hg (1003.0 mb)
Winds: from the WSW (250 degrees) at 6 MPH (5 knots; 2.6 m/s)
Visibility: 2.80 miles (4.51 km)
Ceiling: at least 12,000 feet AGL
Clouds: few clouds at 3000 feet AGL
few clouds at 3500 feet AGL
scattered clouds at 10000 feet AGL
Weather: HZ  (haze)

METAR text: VIDP 021200Z 25004KT 4500 HZ FEW030 FEW035CB SCT100 36/14 Q1003 NOSIG
Conditions at: VIDP (INDIRA GANDHI/DE, IN) observed 1200 UTC 02 June 2020
Temperature: 36.0°C (97°F)
Dewpoint: 14.0°C (57°F) [RH = 27%]
Pressure (altimeter): 29.62 inches Hg (1003.0 mb)
Winds: from the WSW (250 degrees) at 5 MPH (4 knots; 2.1 m/s)
Visibility: 2.80 miles (4.51 km)
Ceiling: at least 12,000 feet AGL
Clouds: few clouds at 3000 feet AGL
few clouds at 3500 feet AGL
scattered clouds at 10000 feet AGL
Weather: HZ  (haze)

METAR text: VIDP 021130Z 25005KT 4500 HZ FEW030 FEW035CB SCT100 36/14 Q1003 NOSIG
Conditions at: VIDP (INDIRA GANDHI/DE, IN) observed 1130 UTC 02 June 2020
Temperature: 36.0°C (97°F)
Dewpoint: 14.0°C (57°F) [RH = 27%]
Pressure (altimeter): 29.62 inches Hg (1003.0 mb)
Winds: from the WSW (250 degrees) at 6 MPH (5 knots; 2.6 m/s)
Visibility: 2.80 miles (4.51 km)
Ceiling: at least 12,000 feet AGL
Clouds: few clouds at 3000 feet AGL
few clouds at 3500 feet AGL
scattered clouds at 10000 feet AGL
Weather: HZ  (haze)

METAR text: VIDP 021100Z 23004KT 4500 HZ FEW030 SCT100 36/15 Q1003 NOSIG
Conditions at: VIDP (INDIRA GANDHI/DE, IN) observed 1100 UTC 02 June 2020
Temperature: 36.0°C (97°F)
Dewpoint: 15.0°C (59°F) [RH = 29%]
Pressure (altimeter): 29.62 inches Hg (1003.0 mb)
Winds: from the SW (230 degrees) at 5 MPH (4 knots; 2.1 m/s)
Visibility: 2.80 miles (4.51 km)
Ceiling: at least 12,000 feet AGL
Clouds: few clouds at 3000 feet AGL
scattered clouds at 10000 feet AGL
Weather: HZ  (haze)

METAR text: VIDP 021030Z 26005KT 4500 HZ FEW030 SCT100 36/16 Q1004 NOSIG
Conditions at: VIDP (INDIRA GANDHI/DE, IN) observed 1030 UTC 02 June 2020
Temperature: 36.0°C (97°F)
Dewpoint: 16.0°C (61°F) [RH = 31%]
Pressure (altimeter): 29.65 inches Hg (1004.0 mb)
Winds: from the W (260 degrees) at 6 MPH (5 knots; 2.6 m/s)
Visibility: 2.80 miles (4.51 km)
Ceiling: at least 12,000 feet AGL
Clouds: few clouds at 3000 feet AGL
scattered clouds at 10000 feet AGL
Weather: HZ  (haze)

METAR text: VIDP 021000Z 25005KT 4500 HZ FEW030 SCT100 36/17 Q1004 NOSIG
Conditions at: VIDP (INDIRA GANDHI/DE, IN) observed 1000 UTC 02 June 2020
Temperature: 36.0°C (97°F)
Dewpoint: 17.0°C (63°F) [RH = 33%]
Pressure (altimeter): 29.65 inches Hg (1004.0 mb)
Winds: from the WSW (250 degrees) at 6 MPH (5 knots; 2.6 m/s)
Visibility: 2.80 miles (4.51 km)
Ceiling: at least 12,000 feet AGL
Clouds: few clouds at 3000 feet AGL
scattered clouds at 10000 feet AGL
Weather: HZ  (haze)

METAR text: VIDP 020930Z 24004KT 4500 HZ FEW030 SCT100 35/17 Q1005 NOSIG
Conditions at: VIDP (INDIRA GANDHI/DE, IN) observed 0930 UTC 02 June 2020
Temperature: 35.0°C (95°F)
Dewpoint: 17.0°C (63°F) [RH = 34%]
Pressure (altimeter): 29.68 inches Hg (1005.0 mb)
Winds: from the WSW (240 degrees) at 5 MPH (4 knots; 2.1 m/s)
Visibility: 2.80 miles (4.51 km)
Ceiling: at least 12,000 feet AGL
Clouds: few clouds at 3000 feet AGL
scattered clouds at 10000 feet AGL
Weather: HZ  (haze)

METAR text: VIDP 020900Z 26007KT 4500 HZ FEW030 SCT100 35/18 Q1005 NOSIG
Conditions at: VIDP (INDIRA GANDHI/DE, IN) observed 0900 UTC 02 June 2020
Temperature: 35.0°C (95°F)
Dewpoint: 18.0°C (64°F) [RH = 37%]
Pressure (altimeter): 29.68 inches Hg (1005.0 mb)
Winds: from the W (260 degrees) at 8 MPH (7 knots; 3.6 m/s)
Visibility: 2.80 miles (4.51 km)
Ceiling: at least 12,000 feet AGL
Clouds: few clouds at 3000 feet AGL
scattered clouds at 10000 feet AGL
Weather: HZ  (haze)

METAR text: VIDP 020830Z 25005KT 4500 HZ FEW035 SCT100 35/19 Q1006 NOSIG
Conditions at: VIDP (INDIRA GANDHI/DE, IN) observed 0830 UTC 02 June 2020
Temperature: 35.0°C (95°F)
Dewpoint: 19.0°C (66°F) [RH = 39%]
Pressure (altimeter): 29.70 inches Hg (1006.0 mb)
Winds: from the WSW (250 degrees) at 6 MPH (5 knots; 2.6 m/s)
Visibility: 2.80 miles (4.51 km)
Ceiling: at least 12,000 feet AGL
Clouds: few clouds at 3500 feet AGL
scattered clouds at 10000 feet AGL
Weather: HZ  (haze)

METAR text: VIDP 020800Z 25007KT 4500 HZ FEW035 SCT100 34/18 Q1006 NOSIG
Conditions at: VIDP (INDIRA GANDHI/DE, IN) observed 0800 UTC 02 June 2020
Temperature: 34.0°C (93°F)
Dewpoint: 18.0°C (64°F) [RH = 39%]
Pressure (altimeter): 29.70 inches Hg (1006.0 mb)
Winds: from the WSW (250 degrees) at 8 MPH (7 knots; 3.6 m/s)
Visibility: 2.80 miles (4.51 km)
Ceiling: at least 12,000 feet AGL
Clouds: few clouds at 3500 feet AGL
scattered clouds at 10000 feet AGL
Weather: HZ  (haze)

METAR text: VIDP 020730Z 25007KT 4500 HZ FEW100 34/18 Q1007 NOSIG
Conditions at: VIDP (INDIRA GANDHI/DE, IN) observed 0730 UTC 02 June 2020
Temperature: 34.0°C (93°F)
Dewpoint: 18.0°C (64°F) [RH = 39%]
Pressure (altimeter): 29.73 inches Hg (1007.0 mb)
Winds: from the WSW (250 degrees) at 8 MPH (7 knots; 3.6 m/s)
Visibility: 2.80 miles (4.51 km)
Ceiling: at least 12,000 feet AGL
Clouds: few clouds at 10000 feet AGL
Weather: HZ  (haze)

METAR text: VIDP 020700Z 25007KT 4500 HZ FEW100 34/18 Q1007 NOSIG
Conditions at: VIDP (INDIRA GANDHI/DE, IN) observed 0700 UTC 02 June 2020
Temperature: 34.0°C (93°F)
Dewpoint: 18.0°C (64°F) [RH = 39%]
Pressure (altimeter): 29.73 inches Hg (1007.0 mb)
Winds: from the WSW (250 degrees) at 8 MPH (7 knots; 3.6 m/s)
Visibility: 2.80 miles (4.51 km)
Ceiling: at least 12,000 feet AGL
Clouds: few clouds at 10000 feet AGL
Weather: HZ  (haze)

METAR text: VIDP 020630Z 22006KT 4500 HZ FEW100 33/18 Q1007 NOSIG
Conditions at: VIDP (INDIRA GANDHI/DE, IN) observed 0630 UTC 02 June 2020
Temperature: 33.0°C (91°F)
Dewpoint: 18.0°C (64°F) [RH = 41%]
Pressure (altimeter): 29.73 inches Hg (1007.0 mb)
Winds: from the SW (220 degrees) at 7 MPH (6 knots; 3.1 m/s)
Visibility: 2.80 miles (4.51 km)
Ceiling: at least 12,000 feet AGL
Clouds: few clouds at 10000 feet AGL
Weather: HZ  (haze)

METAR text: VIDP 020500Z 09005KT 4000 HZ FEW100 30/18 Q1008 NOSIG
Conditions at: VIDP (INDIRA GANDHI/DE, IN) observed 0500 UTC 02 June 2020
Temperature: 30.0°C (86°F)
Dewpoint: 18.0°C (64°F) [RH = 49%]
Pressure (altimeter): 29.76 inches Hg (1008.0 mb)
Winds: from the E (90 degrees) at 6 MPH (5 knots; 2.6 m/s)
Visibility: 2.49 miles (4.01 km)
Ceiling: at least 12,000 feet AGL
Clouds: few clouds at 10000 feet AGL
Weather: HZ  (haze)

Forecast for: VIDP (INDIRA GANDHI/DE, IN)
Text: TAF VIDP 031400Z 0315/0324 29008KT 3000 HZ FEW040 SCT100
Forecast period: 1500 UTC 03 June 2020 to 0000 UTC 04 June 2020
Forecast type: FROM: standard forecast or significant change
Winds: from the WNW (290 degrees) at 9 MPH (8 knots; 4.1 m/s)
Visibility: 1.86 miles (2.99 km)
Ceiling: at least 12,000 feet AGL
Clouds: few clouds at 4000 feet AGL
scattered clouds at 10000 feet AGL
Weather: HZ  (haze)
Text: TEMPO 0315/0318 FEW040CB
Forecast period: 1500 to 1800 UTC 03 June 2020
Forecast type: TEMPORARY: The following changes expected for less than half the time period
Visibility: missing
Ceiling: at least 12,000 feet AGL
Clouds: few clouds at 4000 feet AGL
Weather: no significant weather forecast for this period